createdAt,value
2023-02-21T00:00:34.010Z,8.87
2023-02-21T00:03:21.837Z,8.73
2023-02-21T00:06:07.225Z,8.73
2023-02-21T00:08:52.319Z,9.70
2023-02-21T00:11:37.752Z,7.80
2023-02-21T00:14:24.657Z,7.57
2023-02-21T00:17:10.006Z,6.43
2023-02-21T00:19:55.338Z,7.37
2023-02-21T00:22:40.527Z,8.47
2023-02-21T00:25:25.811Z,7.97
2023-02-21T00:28:11.236Z,8.13
2023-02-21T00:30:58.441Z,7.63
2023-02-21T00:33:44.998Z,7.03
2023-02-21T00:36:34.724Z,7.37
2023-02-21T00:39:20.219Z,7.57
2023-02-21T00:42:05.628Z,6.87
2023-02-21T00:44:51.113Z,6.97
2023-02-21T00:47:37.580Z,6.43
2023-02-21T00:50:23.278Z,5.87
2023-02-21T00:53:08.235Z,5.60
2023-02-21T00:55:53.473Z,6.10
2023-02-21T00:58:40.064Z,5.80
2023-02-21T01:01:25.334Z,5.93
2023-02-21T01:04:12.427Z,6.27
2023-02-21T01:06:57.452Z,6.60
2023-02-21T01:09:42.603Z,6.50
2023-02-21T01:12:27.911Z,6.40
2023-02-21T01:15:13.042Z,6.37
2023-02-21T01:17:58.538Z,6.07
2023-02-21T01:20:45.618Z,6.63
2023-02-21T01:23:30.878Z,5.77
2023-02-21T01:26:16.308Z,5.33
2023-02-21T01:29:04.035Z,5.20
2023-02-21T01:31:49.188Z,5.23
2023-02-21T01:34:36.077Z,5.53
2023-02-21T01:37:23.023Z,5.60
2023-02-21T01:40:08.305Z,5.97
2023-02-21T01:42:53.950Z,6.27
2023-02-21T01:45:57.949Z,5.80
2023-02-21T01:48:44.288Z,4.50
2023-02-21T01:51:30.767Z,4.60
2023-02-21T01:54:18.102Z,5.53
2023-02-21T01:57:03.413Z,4.23
2023-02-21T01:59:48.951Z,4.57
2023-02-21T02:02:36.130Z,4.53
2023-02-21T02:05:21.465Z,4.40
2023-02-21T02:08:07.941Z,4.37
2023-02-21T02:10:55.119Z,3.50
2023-02-21T02:13:29.656Z,4.20
2023-02-21T02:16:01.586Z,3.73
2023-02-21T02:18:48.098Z,3.80
2023-02-21T02:21:34.222Z,3.57
2023-02-21T02:24:24.910Z,4.00
2023-02-21T02:27:14.620Z,3.30
2023-02-21T02:29:50.762Z,3.43
2023-02-21T02:32:34.806Z,3.30
2023-02-21T02:35:06.980Z,3.67
2023-02-21T02:37:37.866Z,2.80
2023-02-21T02:40:10.742Z,3.50
2023-02-21T02:42:42.122Z,3.57
2023-02-21T02:45:13.991Z,3.50
2023-02-21T02:47:44.009Z,3.53
2023-02-21T02:50:13.601Z,4.13
2023-02-21T02:52:50.566Z,3.50
2023-02-21T02:55:25.130Z,3.60
2023-02-21T02:57:54.769Z,3.20
2023-02-21T03:00:22.861Z,3.47
2023-02-21T03:02:54.887Z,3.33
2023-02-21T03:05:32.337Z,3.50
2023-02-21T03:08:02.740Z,3.10
2023-02-21T03:10:36.598Z,3.73
2023-02-21T03:13:06.976Z,3.40
2023-02-21T03:15:36.916Z,3.40
2023-02-21T03:18:07.795Z,3.63
2023-02-21T03:20:38.764Z,3.50
2023-02-21T03:23:06.938Z,3.50
2023-02-21T03:25:37.868Z,3.13
2023-02-21T03:28:06.360Z,3.03
2023-02-21T03:30:34.293Z,2.97
2023-02-21T03:33:02.528Z,3.07
2023-02-21T03:35:30.836Z,2.80
2023-02-21T03:38:00.765Z,2.90
2023-02-21T03:40:29.518Z,2.57
2023-02-21T03:42:57.927Z,2.47
2023-02-21T03:45:26.191Z,2.70
2023-02-21T03:47:53.969Z,3.30
2023-02-21T03:50:21.731Z,3.00
2023-02-21T03:52:49.477Z,3.27
2023-02-21T03:55:19.433Z,2.87
2023-02-21T03:57:47.620Z,3.00
2023-02-21T04:00:16.004Z,3.30
2023-02-21T04:02:43.744Z,2.90
2023-02-21T04:05:11.519Z,2.30
2023-02-21T04:07:39.710Z,3.10
2023-02-21T04:10:08.038Z,2.83
2023-02-21T04:12:37.214Z,2.83
2023-02-21T04:15:05.056Z,2.40
2023-02-21T04:17:32.862Z,3.33
2023-02-21T04:20:00.555Z,2.90
2023-02-21T04:22:28.365Z,2.87
2023-02-21T04:24:55.996Z,3.67
2023-02-21T04:27:24.367Z,3.83
2023-02-21T04:29:53.945Z,3.60
2023-02-21T04:32:21.928Z,2.83
2023-02-21T04:34:49.654Z,3.20
2023-02-21T04:37:17.463Z,3.50
2023-02-21T04:39:45.238Z,4.57
2023-02-21T04:42:12.977Z,4.33
2023-02-21T04:44:42.813Z,3.60
2023-02-21T04:47:13.983Z,3.93
2023-02-21T04:49:42.450Z,4.33
2023-02-21T04:52:10.514Z,3.47
2023-02-21T04:54:38.176Z,3.90
2023-02-21T04:57:05.977Z,3.40
2023-02-21T04:59:33.759Z,3.47
2023-02-21T05:02:02.912Z,3.73
2023-02-21T05:04:32.134Z,3.40
2023-02-21T05:07:00.581Z,3.87
2023-02-21T05:09:28.749Z,3.43
2023-02-21T05:11:56.821Z,3.17
2023-02-21T05:14:24.601Z,4.80
2023-02-21T05:16:52.429Z,4.77
2023-02-21T05:19:27.792Z,5.13
2023-02-21T05:21:58.576Z,5.30
2023-02-21T05:24:26.547Z,5.20
2023-02-21T05:26:54.972Z,4.87
2023-02-21T05:29:22.838Z,4.97
2023-02-21T05:31:50.803Z,5.53
2023-02-21T05:34:19.823Z,5.90
2023-02-21T05:36:47.664Z,5.80
2023-02-21T05:39:17.152Z,5.73
2023-02-21T05:41:49.193Z,6.07
2023-02-21T05:44:17.609Z,6.10
2023-02-21T05:46:47.238Z,5.80
2023-02-21T05:49:15.298Z,5.90
2023-02-21T05:51:44.106Z,7.70
2023-02-21T05:54:15.382Z,7.40
2023-02-21T05:56:47.809Z,5.43
2023-02-21T05:59:16.210Z,7.67
2023-02-21T06:01:44.400Z,9.53
2023-02-21T06:04:14.685Z,12.53
2023-02-21T06:06:42.662Z,8.33
2023-02-21T06:09:13.424Z,9.37
2023-02-21T06:11:41.494Z,7.67
2023-02-21T06:14:14.843Z,8.67
2023-02-21T06:16:43.012Z,8.53
2023-02-21T06:19:12.691Z,9.57
2023-02-21T06:21:42.056Z,7.10
2023-02-21T06:24:10.139Z,7.77
2023-02-21T06:26:38.497Z,8.03
2023-02-21T06:29:06.660Z,8.20
2023-02-21T06:31:36.432Z,7.80
2023-02-21T06:34:04.943Z,7.30
2023-02-21T06:36:32.771Z,6.47
2023-02-21T06:39:00.546Z,6.33
2023-02-21T06:41:28.860Z,6.10
2023-02-21T06:43:57.054Z,6.77
2023-02-21T06:46:26.119Z,9.07
2023-02-21T06:48:55.324Z,5.67
2023-02-21T06:51:29.542Z,5.27
2023-02-21T06:53:58.433Z,4.83
2023-02-21T06:56:27.332Z,5.50
2023-02-21T06:58:55.282Z,5.57
2023-02-21T07:01:24.013Z,5.07
2023-02-21T07:03:52.074Z,5.30
2023-02-21T07:06:21.735Z,4.93
2023-02-21T07:08:49.577Z,5.20
2023-02-21T07:11:19.487Z,5.47
2023-02-21T07:13:48.523Z,6.20
2023-02-21T07:16:18.249Z,5.83
2023-02-21T07:18:46.459Z,4.97
2023-02-21T07:21:15.177Z,5.93
2023-02-21T07:23:45.516Z,6.77
2023-02-21T07:26:13.432Z,5.27
2023-02-21T07:28:41.280Z,5.60
2023-02-21T07:31:10.981Z,6.20
2023-02-21T07:33:38.776Z,5.53
2023-02-21T07:36:07.035Z,5.23
2023-02-21T07:38:34.711Z,6.17
2023-02-21T07:41:04.586Z,5.37
2023-02-21T07:43:33.159Z,5.67
2023-02-21T07:46:01.371Z,5.07
2023-02-21T07:48:29.128Z,4.47
2023-02-21T07:50:57.574Z,5.60
2023-02-21T07:53:26.881Z,5.03
2023-02-21T07:55:54.678Z,4.90
2023-02-21T07:58:23.902Z,4.43
2023-02-21T08:00:52.259Z,4.00
2023-02-21T08:03:19.983Z,3.20
2023-02-21T08:05:47.910Z,2.50
2023-02-21T08:08:16.410Z,2.43
2023-02-21T08:10:44.209Z,2.97
2023-02-21T08:13:12.174Z,2.80
2023-02-21T08:15:41.593Z,3.23
2023-02-21T08:18:18.751Z,4.10
2023-02-21T08:20:46.488Z,3.03
2023-02-21T08:23:14.312Z,2.40
2023-02-21T08:25:42.332Z,3.10
2023-02-21T08:28:10.053Z,3.40
2023-02-21T08:30:37.779Z,3.13
2023-02-21T08:33:07.045Z,2.77
2023-02-21T08:35:34.888Z,2.83
2023-02-21T08:38:04.111Z,2.23
2023-02-21T08:40:32.086Z,3.27
2023-02-21T08:43:01.130Z,5.47
2023-02-21T08:45:29.737Z,3.03
2023-02-21T08:47:57.732Z,2.60
2023-02-21T08:50:28.147Z,2.07
2023-02-21T08:52:56.134Z,2.87
2023-02-21T08:55:24.426Z,2.90
2023-02-21T08:57:53.866Z,3.60
2023-02-21T09:00:24.470Z,3.60
2023-02-21T09:02:52.772Z,4.07
2023-02-21T09:05:24.524Z,5.80
2023-02-21T09:07:58.837Z,5.53
2023-02-21T09:10:27.106Z,4.97
2023-02-21T09:12:56.197Z,5.60
2023-02-21T09:15:23.998Z,5.70
2023-02-21T09:17:52.594Z,5.10
2023-02-21T09:20:22.650Z,5.40
2023-02-21T09:22:50.909Z,4.90
2023-02-21T09:25:21.217Z,5.77
2023-02-21T09:27:49.382Z,4.23
2023-02-21T09:30:18.705Z,5.13
2023-02-21T09:32:46.565Z,5.27
2023-02-21T09:35:14.949Z,5.30
2023-02-21T09:37:44.316Z,4.43
2023-02-21T09:40:19.088Z,5.00
2023-02-21T09:42:50.556Z,4.47
2023-02-21T09:45:20.004Z,5.00
2023-02-21T09:47:50.050Z,4.60
2023-02-21T09:50:20.183Z,4.00
2023-02-21T09:52:48.222Z,3.80
2023-02-21T09:55:23.054Z,4.90
2023-02-21T09:57:52.247Z,4.43
2023-02-21T10:00:20.808Z,5.13
2023-02-21T10:02:53.932Z,4.87
2023-02-21T10:05:27.037Z,4.87
2023-02-21T10:07:59.042Z,5.37
2023-02-21T10:10:29.800Z,3.60
2023-02-21T10:13:02.515Z,4.47
2023-02-21T10:15:38.645Z,4.83
2023-02-21T10:18:08.140Z,3.90
2023-02-21T10:20:39.485Z,3.63
2023-02-21T10:23:14.363Z,3.80
2023-02-21T10:25:46.805Z,4.77
2023-02-21T10:28:19.046Z,3.97
2023-02-21T10:30:48.246Z,4.10
2023-02-21T10:33:16.156Z,3.90
2023-02-21T10:35:43.962Z,3.97
2023-02-21T10:38:13.858Z,3.53
2023-02-21T10:40:43.195Z,3.83
2023-02-21T10:43:13.850Z,3.87
2023-02-21T10:45:46.435Z,3.97
2023-02-21T10:48:15.219Z,4.17
2023-02-21T10:50:44.980Z,4.07
2023-02-21T10:53:24.401Z,4.03
2023-02-21T10:56:07.373Z,3.43
2023-02-21T10:58:37.334Z,3.70
2023-02-21T11:01:16.760Z,3.20
2023-02-21T11:03:46.311Z,2.87
2023-02-21T11:06:23.682Z,3.57
2023-02-21T11:08:51.602Z,3.33
2023-02-21T11:11:35.525Z,2.33
2023-02-21T11:14:09.363Z,2.37
2023-02-21T11:16:38.820Z,1.10
2023-02-21T11:19:07.862Z,1.20
2023-02-21T11:21:35.749Z,1.40
2023-02-21T11:24:04.625Z,2.17
2023-02-21T11:26:36.851Z,1.10
2023-02-21T11:29:10.260Z,1.20
2023-02-21T11:31:39.572Z,1.43
2023-02-21T11:34:08.614Z,1.70
2023-02-21T11:36:37.129Z,3.77
2023-02-21T11:39:07.508Z,3.63
2023-02-21T11:41:39.611Z,1.90
2023-02-21T11:44:22.169Z,2.03
2023-02-21T11:46:53.348Z,1.53
2023-02-21T11:49:24.659Z,1.30
2023-02-21T11:51:55.237Z,1.40
2023-02-21T11:54:30.067Z,1.40
2023-02-21T11:57:01.328Z,1.93
2023-02-21T11:59:37.272Z,1.70
2023-02-21T12:02:19.076Z,1.90
2023-02-21T12:04:56.671Z,1.20
2023-02-21T12:07:30.354Z,1.20
2023-02-21T12:10:03.107Z,1.30
2023-02-21T12:12:36.495Z,1.20
2023-02-21T12:15:09.379Z,1.00
2023-02-21T12:17:52.267Z,2.30
2023-02-21T12:20:35.082Z,2.53
2023-02-21T12:23:09.423Z,1.13
2023-02-21T12:25:43.708Z,1.20
2023-02-21T12:28:17.458Z,1.50
2023-02-21T12:30:57.263Z,1.37
2023-02-21T12:33:30.087Z,1.40
2023-02-21T12:36:13.907Z,1.20
2023-02-21T12:38:48.425Z,1.33
2023-02-21T12:41:25.816Z,1.17
2023-02-21T12:43:58.161Z,1.67
2023-02-21T12:46:29.046Z,1.67
2023-02-21T12:49:00.416Z,1.20
2023-02-21T12:51:31.479Z,1.37
2023-02-21T12:54:03.070Z,1.33
2023-02-21T12:56:34.469Z,1.30
2023-02-21T12:59:05.698Z,1.00
2023-02-21T13:01:34.991Z,1.03
2023-02-21T13:04:08.058Z,1.70
2023-02-21T13:06:37.576Z,1.33
2023-02-21T13:09:20.641Z,1.53
2023-02-21T13:11:51.917Z,1.27
2023-02-21T13:14:22.019Z,1.50
2023-02-21T13:16:49.804Z,2.17
2023-02-21T13:19:17.875Z,2.07
2023-02-21T13:21:52.622Z,1.93
2023-02-21T13:24:30.935Z,1.10
2023-02-21T13:27:06.311Z,1.43
2023-02-21T13:29:37.442Z,1.60
2023-02-21T13:32:09.954Z,1.80
2023-02-21T13:34:39.887Z,1.73
2023-02-21T13:37:09.607Z,1.10
2023-02-21T13:39:38.894Z,1.20
2023-02-21T13:42:09.439Z,1.07
2023-02-21T13:44:39.293Z,1.40
2023-02-21T13:47:10.591Z,1.37
2023-02-21T13:49:42.954Z,1.60
2023-02-21T13:52:26.647Z,1.20
2023-02-21T13:55:26.292Z,1.50
2023-02-21T13:58:09.006Z,1.50
2023-02-21T14:00:53.956Z,1.53
2023-02-21T14:03:31.685Z,1.60
2023-02-21T14:06:18.162Z,1.03
2023-02-21T14:08:49.602Z,1.60
2023-02-21T14:11:24.925Z,1.90
2023-02-21T14:13:54.706Z,1.50
2023-02-21T14:16:25.385Z,1.43
2023-02-21T14:18:56.437Z,1.57
2023-02-21T14:21:26.079Z,1.53
2023-02-21T14:23:56.732Z,1.50
2023-02-21T14:26:38.831Z,1.40
2023-02-21T14:29:24.941Z,1.80
2023-02-21T14:31:59.427Z,1.67
2023-02-21T14:34:35.725Z,4.90
2023-02-21T14:37:05.598Z,4.80
2023-02-21T14:39:35.758Z,5.07
2023-02-21T14:42:22.242Z,2.20
2023-02-21T14:44:56.845Z,6.63
2023-02-21T14:47:34.875Z,4.07
2023-02-21T14:50:18.714Z,4.00
2023-02-21T14:53:05.796Z,2.17
2023-02-21T14:55:40.443Z,2.07
2023-02-21T14:58:29.300Z,1.50
2023-02-21T15:01:03.071Z,1.83
2023-02-21T15:03:33.968Z,2.10
2023-02-21T15:06:04.884Z,3.43
2023-02-21T15:08:41.606Z,4.67
2023-02-21T15:11:17.849Z,4.97
2023-02-21T15:13:45.624Z,3.40
2023-02-21T15:16:17.453Z,3.60
2023-02-21T15:19:00.967Z,11.20
2023-02-21T15:21:28.959Z,10.83
2023-02-21T15:24:02.956Z,12.50
2023-02-21T15:26:31.477Z,11.73
2023-02-21T15:29:05.908Z,9.27
2023-02-21T15:31:34.468Z,9.20
2023-02-21T15:34:03.922Z,8.67
2023-02-21T15:36:32.506Z,8.87
2023-02-21T15:39:02.741Z,7.27
2023-02-21T15:41:34.614Z,3.60
2023-02-21T15:44:05.009Z,3.53
2023-02-21T15:46:34.356Z,2.67
2023-02-21T15:49:05.159Z,2.43
2023-02-21T15:51:33.606Z,2.80
2023-02-21T15:54:26.495Z,2.63
2023-02-21T15:57:17.838Z,2.73
2023-02-21T15:59:45.601Z,2.17
2023-02-21T16:02:17.863Z,2.57
2023-02-21T16:04:48.068Z,2.80
2023-02-21T16:07:18.226Z,3.03
2023-02-21T16:09:48.086Z,2.53
2023-02-21T16:12:33.080Z,2.87
2023-02-21T16:15:02.184Z,3.00
2023-02-21T16:17:31.496Z,2.40
2023-02-21T16:20:02.686Z,3.13
2023-02-21T16:22:38.753Z,3.07
2023-02-21T16:25:16.464Z,3.87
2023-02-21T16:27:45.635Z,3.60
2023-02-21T16:30:14.928Z,4.03
2023-02-21T16:32:43.735Z,4.07
2023-02-21T16:35:16.020Z,4.17
2023-02-21T16:37:43.751Z,3.77
2023-02-21T16:40:15.164Z,4.00
2023-02-21T16:42:43.190Z,4.50
2023-02-21T16:45:11.174Z,4.40
2023-02-21T16:47:38.793Z,4.07
2023-02-21T16:50:06.882Z,4.47
2023-02-21T16:52:36.096Z,4.37
2023-02-21T16:55:03.806Z,4.63
2023-02-21T16:57:31.567Z,4.50
2023-02-21T16:59:59.298Z,4.07
2023-02-21T17:02:27.442Z,4.53
2023-02-21T17:04:55.478Z,4.00
2023-02-21T17:07:24.434Z,4.40
2023-02-21T17:09:54.142Z,4.47
2023-02-21T17:12:21.803Z,4.30
2023-02-21T17:14:49.494Z,3.57
2023-02-21T17:17:17.873Z,5.53
2023-02-21T17:19:45.639Z,4.37
2023-02-21T17:22:13.436Z,4.17
2023-02-21T17:24:41.152Z,5.10
2023-02-21T17:27:10.629Z,3.97
2023-02-21T17:29:38.601Z,4.33
2023-02-21T17:32:07.279Z,5.87
2023-02-21T17:34:35.647Z,8.47
2023-02-21T17:37:04.201Z,3.50
2023-02-21T17:39:32.032Z,11.30
2023-02-21T17:42:00.292Z,8.37
2023-02-21T17:44:29.486Z,6.80
2023-02-21T17:46:59.292Z,5.87
2023-02-21T17:49:28.380Z,8.50
2023-02-21T17:51:56.394Z,8.50
2023-02-21T17:54:25.782Z,4.80
2023-02-21T17:56:53.583Z,4.90
2023-02-21T17:59:21.377Z,4.97
2023-02-21T18:01:50.862Z,5.30
2023-02-21T18:04:18.654Z,5.77
2023-02-21T18:06:46.281Z,5.87
2023-02-21T18:09:14.443Z,6.00
2023-02-21T18:11:42.240Z,6.03
2023-02-21T18:14:09.931Z,5.83
2023-02-21T18:16:37.790Z,4.77
2023-02-21T18:19:07.027Z,5.73
2023-02-21T18:21:34.656Z,6.10
2023-02-21T18:24:02.875Z,6.20
2023-02-21T18:26:30.681Z,5.60
2023-02-21T18:28:58.664Z,7.10
2023-02-21T18:31:26.521Z,6.60
2023-02-21T18:33:54.244Z,6.63
2023-02-21T18:36:23.397Z,6.63
2023-02-21T18:38:51.360Z,8.13
2023-02-21T18:41:22.789Z,8.20
2023-02-21T18:43:51.088Z,7.07
2023-02-21T18:46:20.742Z,8.20
2023-02-21T18:48:49.694Z,7.87
2023-02-21T18:51:19.697Z,8.53
2023-02-21T18:53:49.552Z,10.60
2023-02-21T18:56:19.373Z,8.40
2023-02-21T18:58:47.320Z,7.53
2023-02-21T19:01:15.958Z,7.07
2023-02-21T19:03:44.128Z,6.80
2023-02-21T19:06:13.324Z,6.27
2023-02-21T19:08:42.525Z,7.27
2023-02-21T19:11:13.264Z,7.60
2023-02-21T19:13:41.245Z,6.90
2023-02-21T19:16:09.070Z,6.30
2023-02-21T19:18:36.811Z,7.07
2023-02-21T19:21:04.752Z,5.80
2023-02-21T19:23:32.473Z,5.10
2023-02-21T19:26:00.201Z,7.57
2023-02-21T19:28:30.899Z,5.53
2023-02-21T19:30:58.873Z,5.67
2023-02-21T19:33:26.510Z,5.20
2023-02-21T19:35:54.389Z,6.60
2023-02-21T19:38:22.697Z,6.70
2023-02-21T19:40:50.649Z,7.00
2023-02-21T19:43:18.561Z,7.70
2023-02-21T19:45:49.412Z,6.50
2023-02-21T19:48:17.216Z,6.60
2023-02-21T19:50:44.922Z,8.47
2023-02-21T19:53:14.902Z,9.80
2023-02-21T19:55:42.974Z,9.50
2023-02-21T19:58:10.728Z,9.33
2023-02-21T20:00:40.136Z,9.73
2023-02-21T20:03:09.179Z,9.63
2023-02-21T20:05:36.934Z,7.80
2023-02-21T20:08:06.026Z,10.00
2023-02-21T20:10:34.007Z,10.07
2023-02-21T20:13:02.631Z,10.73
2023-02-21T20:15:30.387Z,9.10
2023-02-21T20:17:58.177Z,9.23
2023-02-21T20:20:27.305Z,9.97
2023-02-21T20:22:55.497Z,9.87
2023-02-21T20:25:24.578Z,9.77
2023-02-21T20:27:52.453Z,9.07
2023-02-21T20:30:20.316Z,9.77
2023-02-21T20:32:48.037Z,8.17
2023-02-21T20:35:15.823Z,11.13
2023-02-21T20:37:44.900Z,9.93
2023-02-21T20:40:15.373Z,8.00
2023-02-21T20:42:43.306Z,8.73
2023-02-21T20:45:11.691Z,7.43
2023-02-21T20:47:40.170Z,9.70
2023-02-21T20:50:08.534Z,8.63
2023-02-21T20:52:36.303Z,8.43
2023-02-21T20:55:05.675Z,7.43
2023-02-21T20:57:33.963Z,7.90
2023-02-21T21:00:01.965Z,8.60
2023-02-21T21:02:30.796Z,6.90
2023-02-21T21:04:58.516Z,6.50
2023-02-21T21:07:26.344Z,5.67
2023-02-21T21:09:54.477Z,5.53
2023-02-21T21:12:24.369Z,6.17
2023-02-21T21:14:54.339Z,6.10
2023-02-21T21:17:22.210Z,6.57
2023-02-21T21:19:50.525Z,6.30
2023-02-21T21:22:19.496Z,7.20
2023-02-21T21:24:47.301Z,7.17
2023-02-21T21:27:15.590Z,6.13
2023-02-21T21:29:45.536Z,6.20
2023-02-21T21:32:14.217Z,5.67
2023-02-21T21:34:45.184Z,6.60
2023-02-21T21:37:14.501Z,5.90
2023-02-21T21:39:44.418Z,6.60
2023-02-21T21:42:17.044Z,5.90
2023-02-21T21:44:52.046Z,5.87
2023-02-21T21:47:21.788Z,6.37
2023-02-21T21:49:51.607Z,6.07
2023-02-21T21:52:20.373Z,5.70
2023-02-21T21:54:48.717Z,6.33
2023-02-21T21:57:17.647Z,5.90
2023-02-21T21:59:49.817Z,6.17
2023-02-21T22:02:17.775Z,6.47
2023-02-21T22:04:48.091Z,6.47
2023-02-21T22:07:17.638Z,8.30
2023-02-21T22:09:47.430Z,11.53
2023-02-21T22:12:17.752Z,12.80
2023-02-21T22:14:46.866Z,13.07
2023-02-21T22:17:15.415Z,12.97
2023-02-21T22:19:45.497Z,13.87
2023-02-21T22:22:16.119Z,13.53
2023-02-21T22:24:43.874Z,13.73
2023-02-21T22:27:11.633Z,13.50
2023-02-21T22:29:39.338Z,12.80
2023-02-21T22:32:10.260Z,12.53
2023-02-21T22:34:38.026Z,11.93
2023-02-21T22:37:05.702Z,11.80
2023-02-21T22:39:33.459Z,11.40
2023-02-21T22:42:05.093Z,12.37
2023-02-21T22:44:33.042Z,13.47
2023-02-21T22:47:00.861Z,12.77
2023-02-21T22:49:30.972Z,12.00
2023-02-21T22:51:59.174Z,11.83
2023-02-21T22:54:27.216Z,11.57
2023-02-21T22:56:55.283Z,11.60
2023-02-21T22:59:24.885Z,13.17
2023-02-21T23:01:53.388Z,12.23
2023-02-21T23:04:26.742Z,12.03
2023-02-21T23:06:57.203Z,11.97
2023-02-21T23:09:25.431Z,12.33
2023-02-21T23:12:01.112Z,12.23
2023-02-21T23:14:31.613Z,13.17
2023-02-21T23:16:59.928Z,12.20
2023-02-21T23:19:29.228Z,12.57
2023-02-21T23:21:58.827Z,12.37
2023-02-21T23:24:28.271Z,13.10
2023-02-21T23:26:56.113Z,13.27
2023-02-21T23:29:25.606Z,13.40
2023-02-21T23:31:58.177Z,13.57
2023-02-21T23:34:40.550Z,12.13
2023-02-21T23:37:12.598Z,11.77
2023-02-21T23:39:40.999Z,11.67
2023-02-21T23:42:11.221Z,11.33
2023-02-21T23:44:39.318Z,10.77
2023-02-21T23:47:07.107Z,11.17
2023-02-21T23:49:35.047Z,10.13
2023-02-21T23:52:03.011Z,10.23
2023-02-21T23:54:32.101Z,9.17
2023-02-21T23:57:00.970Z,8.90
2023-02-21T23:59:28.984Z,8.63
